Terminal Aerodrome Forecast
Issued by NWS Anchorage, AK

Home | Current Version | Previous Version | Text Only | Print | Product List | Glossary On
Versions: 1 2 3 4 5 6 7 8 9 10 11 12 13 14 15 16 17 18 19 20 21 22 23 24 25 26 27 28 29 30 31 32 33 34 35 36 37 38 39 40 41
000
FTAK31 PANC 181509 AAB
TAFANC
TAF AMD
PANC 181509Z 1815/1918 VRB06KT P6SM VCSH SCT045 BKN060
      WS020/12040KT
     FM182200 15015G28KT P6SM SCT050 OVC090
     FM190900 15015G25KT P6SM -SHRA SCT025 OVC040
     FM191300 17017G28KT 5SM -RA BKN025 OVC035=

USA.gov is the U.S. government's official web portal to all federal, state and local government web resources and services.